Time,TemperatureF,DewpointF,PressureIn,WindDirection,WindDirectionDegrees,WindSpeedMPH,WindSpeedGustMPH,Humidity,HourlyPrecipIn,Conditions,Clouds,dailyrainin,SoftwareType,DateUTC
2013-09-25 00:12:00,62.0,58.0,29.92,NNW,338,0.0,0.0,86,0.00,,,0.00,,2013-09-25 05:12:00,
2013-09-25 00:23:00,62.0,58.0,29.92,NNW,338,0.0,0.0,86,0.00,,,0.00,,2013-09-25 05:23:00,
2013-09-25 00:53:00,61.0,57.0,29.92,NNW,337,0.0,0.0,87,0.00,,,0.00,,2013-09-25 05:53:00,
2013-09-25 01:13:00,61.0,57.0,29.92,NNW,338,0.0,0.0,88,0.00,,,0.00,,2013-09-25 06:13:00,
2013-09-25 01:23:00,61.0,57.0,29.92,NNW,337,0.0,0.0,88,0.00,,,0.00,,2013-09-25 06:23:00,
2013-09-25 01:42:00,60.0,57.0,29.91,NNW,338,0.0,0.0,89,0.00,,,0.00,,2013-09-25 06:42:00,
2013-09-25 01:52:00,60.0,57.0,29.91,NNW,338,0.0,0.0,90,0.00,,,0.00,,2013-09-25 06:52:00,
2013-09-25 02:11:00,59.0,56.0,29.91,NNW,338,0.0,0.0,91,0.00,,,0.00,,2013-09-25 07:11:00,
2013-09-25 02:22:00,59.0,57.0,29.91,NNW,338,0.0,0.0,92,0.00,,,0.00,,2013-09-25 07:22:00,
2013-09-25 02:42:00,59.0,57.0,29.91,NNW,338,0.0,0.0,92,0.00,,,0.00,,2013-09-25 07:42:00,
2013-09-25 02:53:00,58.0,56.0,29.91,NNW,337,0.0,0.0,92,0.00,,,0.00,,2013-09-25 07:53:00,
2013-09-25 03:11:00,58.0,56.0,29.92,NNW,338,0.0,0.0,93,0.00,,,0.00,,2013-09-25 08:11:00,
2013-09-25 03:21:00,58.0,56.0,29.91,NNW,337,0.0,0.0,93,0.00,,,0.00,,2013-09-25 08:21:00,
2013-09-25 03:42:00,58.0,56.0,29.91,NNW,338,0.0,0.0,93,0.00,,,0.00,,2013-09-25 08:42:00,
2013-09-25 03:52:00,57.0,55.0,29.91,NNW,338,0.0,0.0,93,0.00,,,0.00,,2013-09-25 08:52:00,
2013-09-25 04:11:00,57.0,55.0,29.91,NNW,337,0.0,0.0,94,0.00,,,0.00,,2013-09-25 09:11:00,
2013-09-25 04:22:00,57.0,55.0,29.91,NNW,338,0.0,0.0,94,0.00,,,0.00,,2013-09-25 09:22:00,
2013-09-25 04:43:00,57.0,55.0,29.91,NNW,338,0.0,0.0,94,0.00,,,0.00,,2013-09-25 09:43:00,
2013-09-25 04:53:00,57.0,55.0,29.91,NNW,338,0.0,0.0,94,0.00,,,0.00,,2013-09-25 09:53:00,
2013-09-25 05:12:00,56.0,54.0,29.91,NNW,338,0.0,0.0,94,0.00,,,0.00,,2013-09-25 10:12:00,
2013-09-25 05:23:00,56.0,55.0,29.91,NNW,338,0.0,0.0,95,0.00,,,0.00,,2013-09-25 10:23:00,
2013-09-25 05:42:00,56.0,54.0,29.91,NNW,337,0.0,0.0,94,0.00,,,0.00,,2013-09-25 10:42:00,
2013-09-25 05:53:00,56.0,54.0,29.92,NNW,338,0.0,0.0,94,0.00,,,0.00,,2013-09-25 10:53:00,
2013-09-25 06:12:00,56.0,55.0,29.92,NNW,338,0.0,0.0,95,0.00,,,0.00,,2013-09-25 11:12:00,
2013-09-25 06:22:00,56.0,55.0,29.92,NNW,338,0.0,0.0,95,0.00,,,0.00,,2013-09-25 11:22:00,
2013-09-25 06:43:00,56.0,55.0,29.92,NNW,337,0.0,0.0,95,0.00,,,0.00,,2013-09-25 11:43:00,
2013-09-25 06:52:00,55.0,54.0,29.93,NNW,337,0.0,0.0,95,0.00,,,0.00,,2013-09-25 11:52:00,
2013-09-25 07:12:00,55.0,54.0,29.93,NNW,337,0.0,-999.0,95,-99.99,,,-99.99,,2013-09-25 12:12:00,
2013-09-25 07:22:00,55.0,54.0,29.94,NNW,337,0.0,0.0,95,0.00,,,0.00,,2013-09-25 12:22:00,
2013-09-25 07:52:00,55.0,54.0,29.94,NNW,338,0.0,0.0,95,0.00,,,0.00,,2013-09-25 12:52:00,
2013-09-25 08:11:00,55.0,54.0,29.95,NNW,337,0.0,0.0,96,0.00,,,0.00,,2013-09-25 13:11:00,
2013-09-25 08:22:00,55.0,54.0,29.94,NNW,338,0.0,0.0,96,0.00,,,0.00,,2013-09-25 13:22:00,
2013-09-25 08:52:00,57.0,56.0,29.95,NNW,338,0.0,0.0,96,0.00,,,0.00,,2013-09-25 13:52:00,
2013-09-25 09:11:00,58.0,57.0,29.95,NNW,338,0.0,0.0,97,0.00,,,0.00,,2013-09-25 14:11:00,
2013-09-25 09:22:00,60.0,59.0,29.94,NE,34,0.0,0.0,97,0.00,,,0.00,,2013-09-25 14:22:00,
2013-09-25 09:52:00,63.0,61.0,29.95,NW,305,0.0,1.0,93,0.00,,,0.00,,2013-09-25 14:52:00,
2013-09-25 10:11:00,65.0,61.0,29.95,North,356,0.0,2.0,86,0.00,,,0.00,,2013-09-25 15:11:00,
2013-09-25 10:22:00,67.0,61.0,29.95,North,359,0.0,2.0,81,0.00,,,0.00,,2013-09-25 15:22:00,
2013-09-25 10:44:00,68.0,61.0,29.96,NE,36,0.0,3.0,78,0.00,,,0.00,,2013-09-25 15:44:00,
2013-09-25 10:53:00,70.0,62.0,29.95,NW,324,0.0,2.0,75,0.00,,,0.00,,2013-09-25 15:53:00,
2013-09-25 11:13:00,72.0,61.0,29.96,North,1,0.0,2.0,69,0.00,,,0.00,,2013-09-25 16:13:00,
2013-09-25 11:23:00,74.0,62.0,29.96,NNE,25,0.0,2.0,66,0.00,,,0.00,,2013-09-25 16:23:00,
2013-09-25 11:43:00,74.0,61.0,29.96,NNE,23,1.0,4.0,64,0.00,,,0.00,,2013-09-25 16:43:00,
2013-09-25 11:53:00,74.0,61.0,29.95,NNE,33,1.0,3.0,63,0.00,,,0.00,,2013-09-25 16:53:00,
2013-09-25 12:13:00,76.0,61.0,29.95,SE,136,0.0,3.0,60,0.00,,,0.00,,2013-09-25 17:13:00,
2013-09-25 12:23:00,77.0,61.0,29.94,North,8,1.0,4.0,58,0.00,,,0.00,,2013-09-25 17:23:00,
2013-09-25 12:42:00,77.0,61.0,29.94,SE,144,0.0,2.0,58,0.00,,,0.00,,2013-09-25 17:42:00,
2013-09-25 12:52:00,79.0,61.0,29.93,NNW,327,1.0,2.0,55,0.00,,,0.00,,2013-09-25 17:52:00,
2013-09-25 13:13:00,80.0,62.0,29.93,South,190,0.0,2.0,55,0.00,,,0.00,,2013-09-25 18:13:00,
2013-09-25 13:22:00,81.0,62.0,29.92,NE,44,0.0,2.0,52,0.00,,,0.00,,2013-09-25 18:22:00,
2013-09-25 13:42:00,83.0,62.0,29.91,North,7,0.0,3.0,49,0.00,,,0.00,,2013-09-25 18:42:00,
2013-09-25 13:52:00,81.0,61.0,29.91,NE,46,0.0,4.0,50,0.00,,,0.00,,2013-09-25 18:52:00,
2013-09-25 14:11:00,81.0,62.0,29.90,East,97,0.0,2.0,52,0.00,,,0.00,,2013-09-25 19:11:00,
2013-09-25 14:22:00,84.0,62.0,29.90,SSW,195,0.0,3.0,48,0.00,,,0.00,,2013-09-25 19:22:00,
2013-09-25 14:42:00,84.0,62.0,29.89,East,82,0.0,3.0,47,0.00,,,0.00,,2013-09-25 19:42:00,
2013-09-25 14:52:00,85.0,62.0,29.88,ESE,115,0.0,3.0,47,0.00,,,0.00,,2013-09-25 19:52:00,
2013-09-25 15:12:00,84.0,61.0,29.87,SW,226,0.0,3.0,46,0.00,,,0.00,,2013-09-25 20:12:00,
2013-09-25 15:22:00,84.0,60.0,29.86,NNE,25,0.0,3.0,45,0.00,,,0.00,,2013-09-25 20:22:00,
2013-09-25 15:43:00,85.0,61.0,29.86,NNW,339,0.0,1.0,44,0.00,,,0.00,,2013-09-25 20:43:00,
2013-09-25 15:52:00,84.0,61.0,29.85,NE,45,0.0,2.0,46,0.00,,,0.00,,2013-09-25 20:52:00,
2013-09-25 16:12:00,85.0,61.0,29.85,NE,51,0.0,2.0,45,0.00,,,0.00,,2013-09-25 21:12:00,
2013-09-25 16:22:00,84.0,61.0,29.85,WSW,248,0.0,3.0,46,0.00,,,0.00,,2013-09-25 21:22:00,
2013-09-25 16:54:00,83.0,59.0,29.84,SW,218,0.0,2.0,44,0.00,,,0.00,,2013-09-25 21:54:00,
2013-09-25 17:14:00,83.0,61.0,29.83,SW,218,0.0,2.0,48,0.00,,,0.00,,2013-09-25 22:14:00,
2013-09-25 17:23:00,82.0,58.0,29.83,SE,146,0.0,2.0,44,0.00,,,0.00,,2013-09-25 22:23:00,
2013-09-25 17:42:00,83.0,60.0,29.83,SSW,211,0.0,2.0,46,0.00,,,0.00,,2013-09-25 22:42:00,
2013-09-25 17:53:00,82.0,57.0,29.83,SSE,163,0.0,2.0,43,0.00,,,0.00,,2013-09-25 22:53:00,
2013-09-25 18:12:00,82.0,58.0,29.83,SSE,150,0.0,2.0,44,0.00,,,0.00,,2013-09-25 23:12:00,
2013-09-25 18:22:00,82.0,60.0,29.83,SE,141,0.0,2.0,47,0.00,,,0.00,,2013-09-25 23:22:00,
2013-09-25 18:42:00,81.0,58.0,29.83,WSW,248,0.0,2.0,45,0.00,,,0.00,,2013-09-25 23:42:00,
2013-09-25 18:53:00,80.0,58.0,29.83,SSE,148,0.0,0.0,47,0.00,,,0.00,,2013-09-25 23:53:00,
2013-09-25 19:12:00,79.0,59.0,29.83,SSE,148,0.0,0.0,50,0.00,,,0.00,,2013-09-26 00:12:00,
2013-09-25 19:22:00,78.0,58.0,29.82,SSE,148,0.0,0.0,51,0.00,,,0.00,,2013-09-26 00:22:00,
2013-09-25 19:42:00,76.0,58.0,29.83,SSE,148,0.0,0.0,54,0.00,,,0.00,,2013-09-26 00:42:00,
2013-09-25 19:52:00,75.0,59.0,29.83,SSE,148,0.0,0.0,57,0.00,,,0.00,,2013-09-26 00:52:00,
2013-09-25 20:12:00,73.0,58.0,29.83,SSE,148,0.0,0.0,59,0.00,,,0.00,,2013-09-26 01:12:00,
2013-09-25 20:22:00,72.0,58.0,29.83,SSE,148,0.0,0.0,61,0.00,,,0.00,,2013-09-26 01:22:00,
2013-09-25 20:42:00,72.0,58.0,29.83,SE,128,0.0,1.0,62,0.00,,,0.00,,2013-09-26 01:42:00,
2013-09-25 20:52:00,73.0,59.0,29.84,ESE,116,0.0,1.0,62,0.00,,,0.00,,2013-09-26 01:52:00,
2013-09-25 21:12:00,73.0,60.0,29.84,East,94,0.0,1.0,63,0.00,,,0.00,,2013-09-26 02:12:00,
2013-09-25 21:21:00,72.0,59.0,29.85,East,96,0.0,0.0,64,0.00,,,0.00,,2013-09-26 02:21:00,
2013-09-25 22:12:00,71.0,59.0,29.85,SSE,150,0.0,2.0,66,0.00,,,0.00,,2013-09-26 03:12:00,
2013-09-25 22:22:00,70.0,59.0,29.85,East,89,0.0,0.0,68,0.00,,,0.00,,2013-09-26 03:22:00,
2013-09-25 22:44:00,70.0,59.0,29.85,SSW,204,0.0,1.0,68,0.00,,,0.00,,2013-09-26 03:44:00,
2013-09-25 22:54:00,70.0,59.0,29.85,SE,143,0.0,1.0,67,0.00,,,0.00,,2013-09-26 03:54:00,
2013-09-25 23:24:00,69.0,58.0,29.86,SE,127,0.0,0.0,69,0.00,,,0.00,,2013-09-26 04:24:00,
2013-09-25 23:54:00,69.0,58.0,29.85,SE,124,0.0,2.0,69,0.00,,,0.00,,2013-09-26 04:54:00,